Time;durP1;ratioP1;P1;durP2;ratioP2;P2;SDS_P1;SDS_P2;PMS_P1;PMS_P2;Temp;Humidity;BMP_temperature;BMP_pressure;BME280_temperature;BME280_humidity;BME280_pressure;Samples;Min_cycle;Max_cycle;Signal;HPM_P1;HPM_P2
2022/02/22 00:00:57;;;;;;;8.87;4.17;;;;;21.40;100369.00;;;;2076016;28;20210;-67
2022/02/22 00:01:58;;;;;;;7.50;4.00;;;;;21.40;100364.00;;;;2077149;28;20214;-67
2022/02/22 00:02:58;;;;;;;7.00;4.13;;;;;21.40;100366.00;;;;2077261;28;20214;-67
2022/02/22 00:03:58;;;;;;;10.10;4.80;;;;;21.40;100371.00;;;;2077083;28;20237;-67
2022/02/22 00:04:59;;;;;;;8.30;4.33;;;;;21.40;100365.00;;;;2077341;28;20271;-67
2022/02/22 00:05:59;;;;;;;12.77;4.90;;;;;21.40;100373.00;;;;2076457;28;20240;-67
2022/02/22 00:07:00;;;;;;;9.67;4.10;;;;;21.40;100375.00;;;;2076429;28;20226;-67
2022/02/22 00:08:00;;;;;;;11.20;4.57;;;;;21.40;100383.00;;;;2076493;28;20228;-67
2022/02/22 00:09:00;;;;;;;11.43;4.50;;;;;21.40;100386.00;;;;2077213;28;20467;-67
2022/02/22 00:10:01;;;;;;;9.50;4.23;;;;;21.40;100320.00;;;;2076892;28;20271;-67
2022/02/22 00:11:01;;;;;;;10.23;4.40;;;;;21.40;100392.00;;;;2075435;28;20612;-67
2022/02/22 00:12:02;;;;;;;10.40;4.13;;;;;21.40;100376.00;;;;2075709;28;20221;-67
2022/02/22 00:13:03;;;;;;;11.20;4.60;;;;;21.40;100381.00;;;;2074961;28;20226;-67
2022/02/22 00:14:03;;;;;;;8.00;3.63;;;;;21.40;100396.00;;;;2075954;28;20714;-67
2022/02/22 00:15:04;;;;;;;10.10;4.50;;;;;21.40;100386.00;;;;2076512;28;20733;-67
2022/02/22 00:16:05;;;;;;;10.15;3.97;;;;;21.30;100389.00;;;;2075958;28;20215;-67
2022/02/22 00:17:06;;;;;;;11.82;4.03;;;;;21.40;100402.00;;;;2068517;28;20214;-68
2022/02/22 00:18:06;;;;;;;9.70;3.70;;;;;21.40;100405.00;;;;2076387;28;20210;-67
2022/02/22 00:19:06;;;;;;;8.40;4.10;;;;;21.30;100399.00;;;;2076290;28;20244;-67
2022/02/22 00:20:09;;;;;;;10.20;4.23;;;;;21.30;100410.00;;;;2075467;28;20217;-67
2022/02/22 00:21:09;;;;;;;8.85;4.43;;;;;21.30;100410.00;;;;2075305;28;20280;-67
2022/02/22 00:22:10;;;;;;;9.53;4.10;;;;;21.30;100416.00;;;;2075948;28;20273;-67
2022/02/22 00:23:10;;;;;;;9.97;4.17;;;;;21.30;100419.00;;;;2076869;28;20249;-67
2022/02/22 00:24:10;;;;;;;11.20;3.97;;;;;21.30;100412.00;;;;2077137;28;20253;-67
2022/02/22 00:25:12;;;;;;;11.13;4.03;;;;;21.30;100424.00;;;;2076962;28;20221;-67
2022/02/22 00:26:13;;;;;;;9.30;3.63;;;;;21.30;100421.00;;;;2076643;28;20685;-67
2022/02/22 00:27:13;;;;;;;7.27;3.83;;;;;21.30;100417.00;;;;2074181;28;20248;-67
2022/02/22 00:28:14;;;;;;;7.27;3.70;;;;;21.30;100424.00;;;;2075597;28;20245;-67
2022/02/22 00:29:14;;;;;;;9.77;4.00;;;;;21.30;100427.00;;;;2075480;28;20214;-68
2022/02/22 00:30:15;;;;;;;10.07;3.63;;;;;21.30;100424.00;;;;2075488;28;20305;-67
2022/02/22 00:31:15;;;;;;;10.00;3.97;;;;;21.30;100423.00;;;;2075956;28;20706;-68
2022/02/22 00:32:16;;;;;;;10.97;4.47;;;;;21.30;100440.00;;;;2074481;28;20214;-67
2022/02/22 00:33:16;;;;;;;9.90;4.47;;;;;21.30;100428.00;;;;2072835;28;20244;-67
2022/02/22 00:34:17;;;;;;;13.57;4.23;;;;;21.30;100432.00;;;;2075457;28;20210;-67
2022/02/22 00:35:17;;;;;;;9.70;3.80;;;;;21.30;100429.00;;;;2076308;28;20225;-67
2022/02/22 00:36:18;;;;;;;7.40;3.40;;;;;21.30;100445.00;;;;2069230;28;20225;-68
2022/02/22 00:37:18;;;;;;;15.20;4.37;;;;;21.30;100462.00;;;;2075190;28;20217;-67
2022/02/22 00:38:20;;;;;;;9.63;3.90;;;;;21.20;100466.00;;;;2075815;28;20260;-67
2022/02/22 00:39:21;;;;;;;9.45;3.65;;;;;21.30;100464.00;;;;2072668;28;20225;-67
2022/02/22 00:40:21;;;;;;;9.93;3.40;;;;;21.20;100464.00;;;;2076194;28;20213;-67
2022/02/22 00:41:21;;;;;;;11.03;3.97;;;;;21.30;100476.00;;;;2076163;28;20206;-67
2022/02/22 00:42:25;;;;;;;10.17;4.57;;;;;21.20;100471.00;;;;2076112;28;20214;-68
2022/02/22 00:43:25;;;;;;;8.95;3.65;;;;;21.20;100476.00;;;;2072614;28;20293;-67
2022/02/22 00:44:27;;;;;;;10.67;4.30;;;;;21.20;100508.00;;;;2076057;28;20209;-68
2022/02/22 00:45:27;;;;;;;9.45;3.80;;;;;21.20;100483.00;;;;2076273;28;20276;-68
2022/02/22 00:46:27;;;;;;;9.77;3.90;;;;;21.20;100487.00;;;;2076132;28;20299;-67
2022/02/22 00:47:28;;;;;;;10.00;3.97;;;;;21.20;100485.00;;;;2076994;28;20819;-67
2022/02/22 00:48:28;;;;;;;8.43;3.63;;;;;21.20;100480.00;;;;2076858;28;20214;-67
2022/02/22 00:49:28;;;;;;;9.07;3.83;;;;;21.20;100483.00;;;;2076928;28;20213;-68
2022/02/22 00:50:29;;;;;;;8.77;3.73;;;;;21.20;100476.00;;;;2075867;28;20276;-67
2022/02/22 00:51:29;;;;;;;11.30;3.57;;;;;21.20;100488.00;;;;2075490;28;20689;-67
2022/02/22 00:52:29;;;;;;;7.67;3.40;;;;;21.20;100484.00;;;;2076076;28;20213;-68
2022/02/22 00:53:30;;;;;;;8.13;3.53;;;;;21.20;100474.00;;;;2075766;28;20217;-67
2022/02/22 00:54:30;;;;;;;7.93;3.80;;;;;21.20;100472.00;;;;2075489;28;20578;-67
2022/02/22 00:55:32;;;;;;;6.57;3.50;;;;;21.20;100479.00;;;;2075988;28;20215;-67
2022/02/22 00:56:32;;;;;;;7.35;3.60;;;;;21.20;100477.00;;;;2075449;28;20613;-68
2022/02/22 00:57:32;;;;;;;9.73;3.33;;;;;21.20;100469.00;;;;2075473;28;20305;-67
2022/02/22 00:58:33;;;;;;;6.83;3.27;;;;;21.20;100464.00;;;;2075355;28;20218;-68
2022/02/22 00:59:33;;;;;;;7.50;3.53;;;;;21.20;100476.00;;;;2076128;28;20313;-67
2022/02/22 01:00:33;;;;;;;5.83;3.00;;;;;21.20;100476.00;;;;2075815;28;20214;-67
2022/02/22 01:01:34;;;;;;;6.37;3.33;;;;;21.20;100476.00;;;;2076354;28;20712;-67
2022/02/22 01:02:34;;;;;;;7.67;2.80;;;;;21.20;100482.00;;;;2076448;28;20639;-68
2022/02/22 01:03:34;;;;;;;7.23;3.20;;;;;21.10;100483.00;;;;2076360;28;20290;-67
2022/02/22 01:04:35;;;;;;;6.47;3.10;;;;;21.20;100488.00;;;;2075057;28;20213;-67
2022/02/22 01:05:35;;;;;;;7.43;3.17;;;;;21.10;100490.00;;;;2075464;28;20213;-67
2022/02/22 01:06:35;;;;;;;6.37;2.67;;;;;21.10;100494.00;;;;2075583;28;20220;-68
2022/02/22 01:07:36;;;;;;;6.03;2.70;;;;;21.20;100491.00;;;;2075621;28;20562;-67
2022/02/22 01:08:36;;;;;;;5.37;2.83;;;;;21.10;100500.00;;;;2075749;28;20681;-67
2022/02/22 01:09:36;;;;;;;7.23;3.10;;;;;21.10;100490.00;;;;2076282;28;20220;-67
2022/02/22 01:10:37;;;;;;;7.43;2.80;;;;;21.20;100489.00;;;;2075976;28;20244;-67
2022/02/22 01:11:37;;;;;;;5.93;3.00;;;;;21.10;100504.00;;;;2076487;28;20240;-67
2022/02/22 01:12:38;;;;;;;6.37;2.77;;;;;21.10;100499.00;;;;2075224;28;20221;-67
2022/02/22 01:13:38;;;;;;;5.90;3.00;;;;;21.10;100489.00;;;;2075153;28;20221;-67
2022/02/22 01:14:38;;;;;;;7.77;3.40;;;;;21.10;100499.00;;;;2074981;28;20225;-67
2022/02/22 01:15:39;;;;;;;5.93;2.50;;;;;21.10;100495.00;;;;2075316;28;20224;-67
2022/02/22 01:16:39;;;;;;;5.40;2.77;;;;;21.10;100481.00;;;;2075213;28;20678;-67
2022/02/22 01:17:39;;;;;;;6.17;2.60;;;;;21.10;100482.00;;;;2075740;28;20583;-68
2022/02/22 01:18:40;;;;;;;4.47;2.60;;;;;21.10;100493.00;;;;2076718;28;20226;-67
2022/02/22 01:19:40;;;;;;;8.00;2.40;;;;;21.10;100497.00;;;;2076828;28;20210;-67
2022/02/22 01:20:40;;;;;;;8.30;3.10;;;;;21.10;100503.00;;;;2076239;28;20248;-67
2022/02/22 01:21:41;;;;;;;8.90;3.33;;;;;21.10;100497.00;;;;2075864;28;20224;-67
2022/02/22 01:22:41;;;;;;;8.47;3.47;;;;;21.10;100496.00;;;;2069998;28;20222;-67
2022/02/22 01:23:41;;;;;;;7.23;2.97;;;;;21.10;100495.00;;;;2069721;28;20229;-67
2022/02/22 01:24:42;;;;;;;6.33;2.67;;;;;21.10;100486.00;;;;2075243;28;20214;-67
2022/02/22 01:25:43;;;;;;;9.10;3.27;;;;;21.10;100494.00;;;;2075902;28;20257;-67
2022/02/22 01:26:43;;;;;;;4.97;2.30;;;;;21.10;100500.00;;;;2075904;28;20269;-67
2022/02/22 01:27:43;;;;;;;7.03;2.73;;;;;21.00;100501.00;;;;2075847;28;20824;-67
2022/02/22 01:28:44;;;;;;;8.47;3.40;;;;;21.10;100506.00;;;;2076544;28;20750;-67
2022/02/22 01:29:44;;;;;;;8.23;3.00;;;;;21.10;100496.00;;;;2075325;28;20677;-67
2022/02/22 01:30:45;;;;;;;5.23;2.47;;;;;21.10;100501.00;;;;2074918;28;20256;-67
2022/02/22 01:31:45;;;;;;;6.67;2.70;;;;;21.10;100505.00;;;;2074258;28;20688;-67
2022/02/22 01:32:45;;;;;;;7.90;3.57;;;;;21.00;100508.00;;;;2074686;28;20771;-67
2022/02/22 01:33:46;;;;;;;9.10;3.30;;;;;21.00;100515.00;;;;2073574;28;20589;-67
2022/02/22 01:34:46;;;;;;;7.07;3.13;;;;;21.10;100515.00;;;;2075828;28;20218;-67
2022/02/22 01:35:46;;;;;;;7.13;3.10;;;;;21.00;100514.00;;;;2074190;28;20225;-68
2022/02/22 01:36:47;;;;;;;8.50;3.43;;;;;21.00;100522.00;;;;2075022;28;20214;-67
2022/02/22 01:37:47;;;;;;;8.10;3.27;;;;;21.00;100505.00;;;;2075165;28;20213;-67
2022/02/22 01:38:48;;;;;;;8.20;3.30;;;;;21.00;100518.00;;;;2075904;28;20289;-67
2022/02/22 01:39:48;;;;;;;9.98;3.40;;;;;21.00;100524.00;;;;2074656;28;20300;-67
2022/02/22 01:40:52;;;;;;;6.90;2.93;;;;;21.00;100525.00;;;;2074538;28;20822;-67
2022/02/22 01:41:53;;;;;;;7.82;3.00;;;;;21.00;100516.00;;;;2074691;28;20296;-67
2022/02/22 01:42:53;;;;;;;7.63;2.93;;;;;21.00;100530.00;;;;2074219;28;20218;-68
2022/02/22 01:43:53;;;;;;;7.23;3.53;;;;;21.00;100530.00;;;;2075414;28;20229;-67
2022/02/22 01:44:54;;;;;;;9.23;2.93;;;;;21.00;100527.00;;;;2075084;28;20262;-67
2022/02/22 01:45:54;;;;;;;7.10;2.93;;;;;21.00;100527.00;;;;2072704;28;20218;-67
2022/02/22 01:46:55;;;;;;;8.87;4.30;;;;;21.00;100516.00;;;;2076015;28;20870;-68
2022/02/22 01:47:55;;;;;;;7.90;3.33;;;;;21.00;100541.00;;;;2076140;28;20214;-68
2022/02/22 01:48:56;;;;;;;9.67;3.60;;;;;21.00;100532.00;;;;2075253;28;20491;-67
2022/02/22 01:49:56;;;;;;;9.30;3.87;;;;;21.00;100541.00;;;;2075401;28;20708;-67
2022/02/22 01:50:56;;;;;;;9.13;3.60;;;;;21.00;100552.00;;;;2067446;28;20618;-68
2022/02/22 01:51:57;;;;;;;9.23;3.70;;;;;21.00;100549.00;;;;2075734;28;20210;-67
2022/02/22 01:52:57;;;;;;;10.70;3.37;;;;;21.00;100532.00;;;;2075345;28;20268;-67
2022/02/22 01:53:57;;;;;;;9.43;3.53;;;;;21.00;100540.00;;;;2067204;28;20245;-67
2022/02/22 01:54:58;;;;;;;7.87;3.30;;;;;21.00;100532.00;;;;2074182;28;20217;-68
2022/02/22 01:55:59;;;;;;;8.63;3.20;;;;;20.90;100538.00;;;;2073965;28;20297;-68
2022/02/22 01:57:00;;;;;;;8.45;3.60;;;;;21.00;100545.00;;;;2075012;28;20214;-67
2022/02/22 01:58:00;;;;;;;7.63;3.33;;;;;21.00;100545.00;;;;2075952;28;20221;-67
2022/02/22 01:59:01;;;;;;;6.63;3.00;;;;;21.00;100543.00;;;;2074519;28;20213;-68
2022/02/22 02:00:03;;;;;;;10.97;3.63;;;;;21.00;100548.00;;;;2074530;28;20217;-67
2022/02/22 02:01:04;;;;;;;11.40;3.67;;;;;20.90;100552.00;;;;2074302;28;20241;-68
2022/02/22 02:02:04;;;;;;;12.03;3.80;;;;;20.90;100558.00;;;;2066306;28;20219;-67
2022/02/22 02:03:04;;;;;;;7.87;2.87;;;;;21.00;100562.00;;;;2075248;28;20236;-67
2022/02/22 02:04:05;;;;;;;8.90;3.33;;;;;20.90;100569.00;;;;2075184;28;20210;-67
2022/02/22 02:05:06;;;;;;;8.00;3.40;;;;;20.90;100557.00;;;;2076105;28;20209;-67
2022/02/22 02:06:07;;;;;;;9.27;3.83;;;;;20.90;100565.00;;;;2073497;28;20245;-67
2022/02/22 02:07:07;;;;;;;8.43;3.67;;;;;20.90;100557.00;;;;2075153;28;20460;-67
2022/02/22 02:08:07;;;;;;;9.60;4.00;;;;;20.90;100562.00;;;;2075559;28;20292;-67
2022/02/22 02:09:09;;;;;;;8.10;3.60;;;;;20.90;100562.00;;;;2075236;28;20316;-67
2022/02/22 02:10:09;;;;;;;7.95;3.00;;;;;20.90;100562.00;;;;2075461;28;20250;-68
2022/02/22 02:11:10;;;;;;;14.50;4.00;;;;;20.90;100572.00;;;;2075108;28;20231;-67
2022/02/22 02:12:10;;;;;;;9.17;3.07;;;;;20.90;100561.00;;;;2076119;28;20654;-67
2022/02/22 02:13:11;;;;;;;10.60;3.67;;;;;20.90;100578.00;;;;2076138;28;20821;-67
2022/02/22 02:14:12;;;;;;;8.80;3.45;;;;;20.90;100576.00;;;;2076235;28;20225;-67
2022/02/22 02:15:12;;;;;;;7.77;3.77;;;;;20.90;100566.00;;;;2075583;28;20673;-67
2022/02/22 02:16:12;;;;;;;8.40;3.40;;;;;20.90;100570.00;;;;2075025;28;20213;-67
2022/02/22 02:17:13;;;;;;;9.23;3.93;;;;;20.90;100568.00;;;;2075297;28;20213;-68
2022/02/22 02:18:13;;;;;;;8.70;3.63;;;;;20.90;100565.00;;;;2075659;28;20293;-67
2022/02/22 02:19:16;;;;;;;10.70;3.50;;;;;20.90;100578.00;;;;2075848;28;20221;-67
2022/02/22 02:20:17;;;;;;;8.98;2.95;;;;;20.90;100576.00;;;;2076246;28;20637;-67
2022/02/22 02:21:17;;;;;;;13.27;3.87;;;;;20.90;100569.00;;;;2073383;28;20215;-67
2022/02/22 02:22:17;;;;;;;6.60;3.17;;;;;20.90;100576.00;;;;2066578;28;20682;-67
2022/02/22 02:23:17;;;;;;;7.07;2.97;;;;;20.90;100572.00;;;;2058246;28;20706;-67
2022/02/22 02:24:19;;;;;;;6.60;3.20;;;;;20.90;100579.00;;;;2074304;28;20217;-67
2022/02/22 02:25:19;;;;;;;10.65;3.58;;;;;20.90;100571.00;;;;2075186;28;20300;-67
2022/02/22 02:26:20;;;;;;;10.90;3.90;;;;;20.80;100557.00;;;;2074849;28;20582;-67
2022/02/22 02:27:20;;;;;;;8.70;3.70;;;;;20.80;100566.00;;;;2075340;28;20218;-67
2022/02/22 02:28:20;;;;;;;12.17;4.40;;;;;20.90;100570.00;;;;2075649;28;20225;-67
2022/02/22 02:29:22;;;;;;;9.13;3.63;;;;;20.90;100544.00;;;;2075643;28;20285;-67
2022/02/22 02:30:23;;;;;;;10.38;4.13;;;;;20.90;100580.00;;;;2075020;28;20233;-67
2022/02/22 02:31:23;;;;;;;10.33;3.23;;;;;20.90;100557.00;;;;2074497;28;20759;-67
2022/02/22 02:32:23;;;;;;;9.23;3.67;;;;;20.90;100562.00;;;;2074310;28;20692;-67
2022/02/22 02:33:24;;;;;;;9.23;3.83;;;;;20.90;100573.00;;;;2075093;28;20766;-67
2022/02/22 02:34:26;;;;;;;10.83;3.60;;;;;20.90;100572.00;;;;2074754;28;20697;-67
2022/02/22 02:35:27;;;;;;;10.57;3.33;;;;;20.80;100579.00;;;;2073013;28;20222;-67
2022/02/22 02:36:27;;;;;;;10.33;3.60;;;;;20.80;100582.00;;;;2075565;28;20255;-67
2022/02/22 02:37:27;;;;;;;10.10;3.70;;;;;20.80;100572.00;;;;2074658;28;20208;-67
2022/02/22 02:38:28;;;;;;;8.20;3.40;;;;;20.80;100579.00;;;;2074800;28;20214;-67
2022/02/22 02:39:28;;;;;;;11.63;3.60;;;;;20.80;100572.00;;;;2074923;28;20245;-67
2022/02/22 02:40:28;;;;;;;11.30;3.73;;;;;20.80;100571.00;;;;2070806;28;20218;-67
2022/02/22 02:41:28;;;;;;;8.50;3.97;;;;;20.80;100566.00;;;;2070584;28;20214;-65
2022/02/22 02:42:29;;;;;;;8.33;3.57;;;;;20.80;100572.00;;;;2074827;28;20318;-67
2022/02/22 02:43:29;;;;;;;11.23;3.70;;;;;20.80;100572.00;;;;2071475;28;20218;-67
2022/02/22 02:44:30;;;;;;;12.27;3.57;;;;;20.80;100575.00;;;;2075986;28;20213;-67
2022/02/22 02:45:30;;;;;;;8.97;3.20;;;;;20.80;100571.00;;;;2066981;28;20210;-67
2022/02/22 02:46:30;;;;;;;8.77;3.30;;;;;20.80;100576.00;;;;2075482;28;20281;-67
2022/02/22 02:47:31;;;;;;;7.77;3.20;;;;;20.80;100579.00;;;;2075327;28;20267;-67
2022/02/22 02:48:31;;;;;;;7.73;3.40;;;;;20.80;100582.00;;;;2074582;28;20638;-68
2022/02/22 02:49:31;;;;;;;8.33;3.37;;;;;20.80;100571.00;;;;2076468;28;20335;-68
2022/02/22 02:50:32;;;;;;;10.37;3.60;;;;;20.80;100569.00;;;;2073155;28;20206;-67
2022/02/22 02:51:32;;;;;;;9.37;3.60;;;;;20.80;100575.00;;;;2075996;28;20210;-67
2022/02/22 02:52:32;;;;;;;9.20;3.77;;;;;20.80;100588.00;;;;2075559;28;20221;-67
2022/02/22 02:53:33;;;;;;;9.10;3.33;;;;;20.80;100576.00;;;;2075135;28;20224;-67
2022/02/22 02:54:33;;;;;;;12.00;3.60;;;;;20.80;100582.00;;;;2074561;28;20217;-68
2022/02/22 02:55:34;;;;;;;9.13;3.33;;;;;20.80;100576.00;;;;2073694;28;20222;-68
2022/02/22 02:56:34;;;;;;;12.37;3.20;;;;;20.80;100582.00;;;;2075184;28;20260;-67
2022/02/22 02:57:36;;;;;;;9.20;3.60;;;;;20.80;100582.00;;;;2076005;28;20220;-67
2022/02/22 02:58:36;;;;;;;9.95;3.35;;;;;20.80;100589.00;;;;2075101;28;20272;-67
2022/02/22 02:59:36;;;;;;;9.13;3.47;;;;;20.80;100578.00;;;;2074991;28;20218;-67
2022/02/22 03:00:37;;;;;;;11.17;3.53;;;;;20.80;100586.00;;;;2075000;28;20283;-67
2022/02/22 03:01:38;;;;;;;10.50;3.63;;;;;20.80;100568.00;;;;2074793;28;20209;-67
2022/02/22 03:02:38;;;;;;;9.55;4.00;;;;;20.80;100576.00;;;;2066005;28;20210;-67
2022/02/22 03:03:38;;;;;;;8.40;3.47;;;;;20.80;100571.00;;;;2065988;28;20896;-67
2022/02/22 03:04:39;;;;;;;8.70;3.80;;;;;20.80;100569.00;;;;2074522;28;20214;-67
2022/02/22 03:05:39;;;;;;;12.90;3.97;;;;;20.70;100569.00;;;;2075588;28;20222;-67
2022/02/22 03:06:40;;;;;;;13.07;3.97;;;;;20.70;100573.00;;;;2075373;28;20236;-67
2022/02/22 03:07:40;;;;;;;12.60;3.70;;;;;20.70;100575.00;;;;2075416;28;20210;-68
2022/02/22 03:08:40;;;;;;;8.23;3.63;;;;;20.70;100583.00;;;;2072820;28;20205;-67
2022/02/22 03:09:40;;;;;;;9.37;3.70;;;;;20.70;100576.00;;;;2074917;28;20214;-67
2022/02/22 03:10:41;;;;;;;9.27;3.60;;;;;20.70;100576.00;;;;2075271;28;20229;-67
2022/02/22 03:11:41;;;;;;;8.90;3.50;;;;;20.70;100589.00;;;;2075767;28;20206;-67
2022/02/22 03:12:41;;;;;;;7.33;3.47;;;;;20.70;100532.00;;;;2075764;28;20546;-67
2022/02/22 03:13:42;;;;;;;9.77;3.60;;;;;20.70;100588.00;;;;2075679;28;20693;-67
2022/02/22 03:14:42;;;;;;;12.20;3.90;;;;;20.70;100587.00;;;;2074550;28;20701;-67
2022/02/22 03:15:43;;;;;;;9.10;3.80;;;;;20.70;100579.00;;;;2074426;28;20206;-67
2022/02/22 03:16:43;;;;;;;9.67;3.53;;;;;20.70;100577.00;;;;2075111;28;20201;-67
2022/02/22 03:17:43;;;;;;;7.30;3.00;;;;;20.70;100590.00;;;;2075260;28;20206;-67
2022/02/22 03:18:45;;;;;;;9.37;3.70;;;;;20.70;100592.00;;;;2076006;28;20221;-67
2022/02/22 03:19:45;;;;;;;7.75;3.30;;;;;20.70;100587.00;;;;2075977;28;20218;-67
2022/02/22 03:20:45;;;;;;;9.13;3.80;;;;;20.70;100592.00;;;;2075603;28;20209;-67
2022/02/22 03:21:46;;;;;;;8.50;3.80;;;;;20.70;100590.00;;;;2075990;28;20251;-67
2022/02/22 03:22:47;;;;;;;7.70;3.97;;;;;20.70;100592.00;;;;2070676;28;20202;-67
2022/02/22 03:23:48;;;;;;;9.95;3.80;;;;;20.70;100597.00;;;;2074974;28;20254;-67
2022/02/22 03:24:48;;;;;;;8.73;3.40;;;;;20.70;100588.00;;;;2071740;28;20264;-67
2022/02/22 03:25:49;;;;;;;9.57;4.07;;;;;20.50;100597.00;;;;2075091;28;20249;-67
2022/02/22 03:26:49;;;;;;;11.77;3.70;;;;;20.70;100588.00;;;;2074459;28;20220;-67
2022/02/22 03:27:49;;;;;;;12.70;4.60;;;;;20.70;100589.00;;;;2074985;28;20217;-67
2022/02/22 03:28:50;;;;;;;8.93;3.23;;;;;20.70;100577.00;;;;2075141;28;20230;-67
2022/02/22 03:29:50;;;;;;;9.57;3.37;;;;;20.70;100583.00;;;;2076121;28;20205;-67
2022/02/22 03:30:50;;;;;;;9.57;3.60;;;;;20.70;100583.00;;;;2075077;28;20268;-67
2022/02/22 03:31:51;;;;;;;10.57;3.37;;;;;20.70;100589.00;;;;2075090;28;20231;-67
2022/02/22 03:32:51;;;;;;;11.47;3.67;;;;;20.70;100595.00;;;;2075080;28;20198;-67
2022/02/22 03:33:52;;;;;;;9.00;3.47;;;;;20.70;100583.00;;;;2075075;28;20206;-67
2022/02/22 03:34:53;;;;;;;8.65;3.53;;;;;20.70;100589.00;;;;2075546;28;20206;-67
2022/02/22 03:35:53;;;;;;;8.93;3.60;;;;;20.70;100588.00;;;;2075250;28;20206;-67
2022/02/22 03:36:53;;;;;;;9.80;3.73;;;;;20.60;100595.00;;;;2075499;28;20276;-67
2022/02/22 03:37:54;;;;;;;8.30;2.97;;;;;20.60;100591.00;;;;2076033;28;20206;-67
2022/02/22 03:38:54;;;;;;;8.53;3.90;;;;;20.60;100600.00;;;;2074601;28;20217;-67
2022/02/22 03:39:55;;;;;;;11.00;4.20;;;;;20.60;100599.00;;;;2075423;28;20625;-68
2022/02/22 03:40:55;;;;;;;8.07;3.10;;;;;20.60;100603.00;;;;2074536;28;20244;-67
2022/02/22 03:41:55;;;;;;;9.83;3.73;;;;;20.60;100599.00;;;;2066828;28;20218;-67
2022/02/22 03:42:56;;;;;;;12.10;4.03;;;;;20.60;100594.00;;;;2074842;28;20208;-67
2022/02/22 03:43:56;;;;;;;8.00;3.03;;;;;20.70;100588.00;;;;2075071;28;20217;-67
2022/02/22 03:44:56;;;;;;;7.80;3.20;;;;;20.60;100590.00;;;;2075134;28;20693;-67
2022/02/22 03:45:57;;;;;;;6.97;3.43;;;;;20.60;100600.00;;;;2072723;28;20583;-67
2022/02/22 03:46:57;;;;;;;9.60;3.60;;;;;20.60;100610.00;;;;2075143;28;20582;-67
2022/02/22 03:47:57;;;;;;;10.97;3.60;;;;;20.60;100605.00;;;;2066761;28;20732;-68
2022/02/22 03:48:58;;;;;;;11.17;3.80;;;;;20.60;100606.00;;;;2066925;28;20583;-67
2022/02/22 03:49:58;;;;;;;9.43;3.63;;;;;20.60;100600.00;;;;2075925;28;20217;-67
2022/02/22 03:50:58;;;;;;;7.70;3.50;;;;;20.60;100612.00;;;;2075290;28;20242;-67
2022/02/22 03:51:59;;;;;;;9.90;3.50;;;;;20.60;100615.00;;;;2075543;28;20236;-67
2022/02/22 03:52:59;;;;;;;9.80;3.80;;;;;20.60;100609.00;;;;2072934;28;20244;-67
2022/02/22 03:54:00;;;;;;;9.77;3.60;;;;;20.60;100613.00;;;;2074250;28;20218;-67
2022/02/22 03:55:01;;;;;;;9.43;3.92;;;;;20.60;100622.00;;;;2075105;28;20218;-67
2022/02/22 03:56:01;;;;;;;9.97;3.70;;;;;20.60;100615.00;;;;2071954;28;20223;-67
2022/02/22 03:57:01;;;;;;;8.40;3.67;;;;;20.60;100620.00;;;;2073839;28;20744;-67
2022/02/22 03:58:02;;;;;;;10.53;3.50;;;;;20.60;100620.00;;;;2074256;28;20594;-67
2022/02/22 03:59:02;;;;;;;9.60;3.83;;;;;20.60;100605.00;;;;2074911;28;20305;-67
2022/02/22 04:00:09;;;;;;;10.83;3.57;;;;;20.60;100625.00;;;;2074999;28;20214;-67
2022/02/22 04:01:09;;;;;;;7.63;3.35;;;;;20.60;100630.00;;;;2075093;28;20221;-67
2022/02/22 04:02:09;;;;;;;11.60;3.80;;;;;20.60;100615.00;;;;2074752;28;20824;-67
2022/02/22 04:03:10;;;;;;;9.90;4.07;;;;;20.60;100616.00;;;;2076361;28;20577;-67
2022/02/22 04:04:10;;;;;;;9.17;3.90;;;;;20.60;100609.00;;;;2076790;28;20673;-67
2022/02/22 04:05:10;;;;;;;10.13;4.30;;;;;20.60;100566.00;;;;2076314;28;20303;-67
2022/02/22 04:06:11;;;;;;;8.90;3.70;;;;;20.60;100634.00;;;;2075531;28;20210;-67
2022/02/22 04:07:11;;;;;;;10.57;4.20;;;;;20.60;100620.00;;;;2075754;28;20214;-67
2022/02/22 04:08:12;;;;;;;8.43;3.43;;;;;20.60;100634.00;;;;2075816;28;20249;-67
2022/02/22 04:09:13;;;;;;;9.75;3.88;;;;;20.60;100625.00;;;;2077001;28;20263;-67
2022/02/22 04:10:13;;;;;;;10.07;3.43;;;;;20.50;100627.00;;;;2075521;28;20217;-67
2022/02/22 04:11:13;;;;;;;10.50;3.63;;;;;20.50;100626.00;;;;2074745;28;20230;-67
2022/02/22 04:12:17;;;;;;;8.43;3.23;;;;;20.50;100628.00;;;;2075485;28;20214;-67
2022/02/22 04:13:17;;;;;;;10.75;3.80;;;;;20.60;100627.00;;;;2070785;28;20221;-67
2022/02/22 04:14:17;;;;;;;8.03;3.47;;;;;20.50;100632.00;;;;2062110;28;20717;-67
2022/02/22 04:15:18;;;;;;;11.80;4.03;;;;;20.50;100627.00;;;;2067760;28;20721;-68
2022/02/22 04:16:18;;;;;;;7.10;3.13;;;;;20.30;100630.00;;;;2075812;28;20685;-68
2022/02/22 04:17:18;;;;;;;8.13;3.50;;;;;20.50;100636.00;;;;2075531;28;20237;-68
2022/02/22 04:18:19;;;;;;;12.87;4.10;;;;;20.50;100639.00;;;;2075662;28;20614;-67
2022/02/22 04:19:19;;;;;;;6.43;3.03;;;;;20.50;100641.00;;;;2076505;28;20370;-67
2022/02/22 04:20:19;;;;;;;11.07;3.90;;;;;20.50;100644.00;;;;2076494;28;20262;-67
2022/02/22 04:21:20;;;;;;;11.60;4.10;;;;;20.50;100647.00;;;;2075544;28;20218;-67
2022/02/22 04:22:20;;;;;;;8.50;3.70;;;;;20.50;100637.00;;;;2076994;28;20210;-67
2022/02/22 04:23:20;;;;;;;9.80;3.00;;;;;20.50;100643.00;;;;2076128;28;20214;-67
2022/02/22 04:24:21;;;;;;;12.80;3.30;;;;;20.50;100652.00;;;;2076460;28;20287;-67
2022/02/22 04:25:21;;;;;;;8.40;3.70;;;;;20.50;100649.00;;;;2071843;28;20210;-67
2022/02/22 04:26:21;;;;;;;8.27;3.10;;;;;20.50;100645.00;;;;2073642;28;20209;-67
2022/02/22 04:27:22;;;;;;;12.50;3.50;;;;;20.50;100652.00;;;;2076173;28;20756;-67
2022/02/22 04:28:22;;;;;;;8.43;3.20;;;;;20.50;100653.00;;;;2076007;28;20748;-67
2022/02/22 04:29:23;;;;;;;8.10;3.10;;;;;20.50;100652.00;;;;2076926;28;20608;-67
2022/02/22 04:30:23;;;;;;;8.85;3.63;;;;;20.50;100653.00;;;;2076979;28;20805;-67
2022/02/22 04:31:24;;;;;;;9.90;3.37;;;;;20.50;100656.00;;;;2065704;28;20238;-67
2022/02/22 04:32:24;;;;;;;8.60;3.60;;;;;20.50;100651.00;;;;2068334;28;20237;-67
2022/02/22 04:33:24;;;;;;;11.30;3.70;;;;;20.50;100655.00;;;;2076534;28;20209;-67
2022/02/22 04:34:25;;;;;;;8.73;3.67;;;;;20.50;100657.00;;;;2076275;28;20224;-67
2022/02/22 04:35:25;;;;;;;8.13;3.03;;;;;20.50;100655.00;;;;2076368;28;20300;-67
2022/02/22 04:36:26;;;;;;;9.80;3.77;;;;;20.50;100657.00;;;;2078023;28;20221;-67
2022/02/22 04:37:26;;;;;;;10.20;3.73;;;;;20.50;100658.00;;;;2076089;28;20224;-67
2022/02/22 04:38:26;;;;;;;8.53;3.23;;;;;20.50;100659.00;;;;2076075;28;20213;-67
2022/02/22 04:39:27;;;;;;;13.67;3.43;;;;;20.50;100653.00;;;;2076098;28;20267;-67
2022/02/22 04:40:27;;;;;;;9.17;3.63;;;;;20.50;100654.00;;;;2075273;28;20292;-67
2022/02/22 04:41:27;;;;;;;12.27;4.13;;;;;20.50;100656.00;;;;2072540;28;20226;-67
2022/02/22 04:42:28;;;;;;;7.37;3.30;;;;;20.50;100660.00;;;;2076298;28;20210;-67
2022/02/22 04:43:28;;;;;;;8.17;3.60;;;;;20.50;100667.00;;;;2076704;28;20253;-67
2022/02/22 04:44:28;;;;;;;11.00;3.33;;;;;20.50;100661.00;;;;2076637;28;20356;-66
2022/02/22 04:45:29;;;;;;;7.40;3.23;;;;;20.40;100656.00;;;;2075824;28;20228;-67
2022/02/22 04:46:29;;;;;;;9.70;3.53;;;;;20.40;100657.00;;;;2075330;28;20320;-67
2022/02/22 04:47:29;;;;;;;10.33;3.17;;;;;20.50;100658.00;;;;2076131;28;20206;-67
2022/02/22 04:48:30;;;;;;;8.10;3.63;;;;;20.50;100660.00;;;;2075155;28;20233;-67
2022/02/22 04:49:30;;;;;;;11.70;3.53;;;;;20.40;100657.00;;;;2075448;28;20293;-67
2022/02/22 04:50:30;;;;;;;10.30;3.80;;;;;20.40;100658.00;;;;2076049;28;20213;-67
2022/02/22 04:51:31;;;;;;;12.27;3.70;;;;;20.50;100667.00;;;;2072822;28;20241;-67
2022/02/22 04:52:31;;;;;;;8.23;2.83;;;;;20.40;100671.00;;;;2075461;28;20218;-67
2022/02/22 04:53:31;;;;;;;10.63;3.67;;;;;20.40;100667.00;;;;2075908;28;20212;-67
2022/02/22 04:54:32;;;;;;;9.03;3.53;;;;;20.40;100676.00;;;;2075738;28;20209;-67
2022/02/22 04:55:32;;;;;;;10.43;4.07;;;;;20.40;100672.00;;;;2076234;28;20225;-67
2022/02/22 04:56:32;;;;;;;10.07;3.77;;;;;20.40;100672.00;;;;2075883;28;20255;-67
2022/02/22 04:57:36;;;;;;;11.60;3.73;;;;;20.40;100673.00;;;;2075666;28;20210;-67
2022/02/22 04:58:36;;;;;;;10.00;3.53;;;;;20.40;100674.00;;;;2076337;28;20206;-67